sensor_id;sensor_type;location;lat;lon;timestamp;pressure;altitude;pressure_sealevel;temperature;humidity
78623;BME280;67943;54.412;9.502;2024-03-07T00:03:17;102853.53;;;5.15;82.27
78623;BME280;67943;54.412;9.502;2024-03-07T00:08:19;102842.53;;;5.25;82.43
78623;BME280;67943;54.412;9.502;2024-03-07T00:13:21;102841.81;;;5.29;82.62
78623;BME280;67943;54.412;9.502;2024-03-07T00:18:24;102842.00;;;5.35;82.62
78623;BME280;67943;54.412;9.502;2024-03-07T00:23:25;102842.16;;;5.40;82.62
78623;BME280;67943;54.412;9.502;2024-03-07T00:28:27;102845.84;;;5.47;82.52
78623;BME280;67943;54.412;9.502;2024-03-07T00:33:34;102834.47;;;5.45;82.59
78623;BME280;67943;54.412;9.502;2024-03-07T00:38:35;102851.34;;;5.56;82.64
78623;BME280;67943;54.412;9.502;2024-03-07T00:43:37;102845.44;;;5.61;82.52
78623;BME280;67943;54.412;9.502;2024-03-07T00:48:40;102840.06;;;5.57;82.79
78623;BME280;67943;54.412;9.502;2024-03-07T00:53:41;102845.13;;;5.52;82.90
78623;BME280;67943;54.412;9.502;2024-03-07T00:58:43;102839.13;;;5.55;83.10
78623;BME280;67943;54.412;9.502;2024-03-07T01:03:45;102832.34;;;5.60;82.43
78623;BME280;67943;54.412;9.502;2024-03-07T01:08:47;102827.13;;;5.60;82.63
78623;BME280;67943;54.412;9.502;2024-03-07T01:13:49;102821.78;;;5.57;82.68
78623;BME280;67943;54.412;9.502;2024-03-07T01:18:51;102827.22;;;5.63;81.98
78623;BME280;67943;54.412;9.502;2024-03-07T01:23:53;102819.28;;;5.60;82.01
78623;BME280;67943;54.412;9.502;2024-03-07T01:28:55;102824.59;;;5.63;81.37
78623;BME280;67943;54.412;9.502;2024-03-07T01:33:58;102817.56;;;5.60;81.09
78623;BME280;67943;54.412;9.502;2024-03-07T01:38:59;102818.34;;;5.58;80.64
78623;BME280;67943;54.412;9.502;2024-03-07T01:44:02;102829.56;;;5.55;80.37
78623;BME280;67943;54.412;9.502;2024-03-07T01:49:04;102820.69;;;5.50;79.51
78623;BME280;67943;54.412;9.502;2024-03-07T01:54:08;102815.56;;;5.53;79.70
78623;BME280;67943;54.412;9.502;2024-03-07T01:59:10;102818.16;;;5.52;79.25
78623;BME280;67943;54.412;9.502;2024-03-07T02:04:15;102813.84;;;5.54;78.54
78623;BME280;67943;54.412;9.502;2024-03-07T02:09:16;102804.31;;;5.54;78.39
78623;BME280;67943;54.412;9.502;2024-03-07T02:14:18;102807.91;;;5.58;78.20
78623;BME280;67943;54.412;9.502;2024-03-07T02:19:21;102802.56;;;5.55;77.67
78623;BME280;67943;54.412;9.502;2024-03-07T02:24:24;102804.25;;;5.53;77.67
78623;BME280;67943;54.412;9.502;2024-03-07T02:29:26;102799.88;;;5.52;77.70
78623;BME280;67943;54.412;9.502;2024-03-07T02:34:28;102798.94;;;5.50;77.48
78623;BME280;67943;54.412;9.502;2024-03-07T02:39:31;102791.09;;;5.50;76.69
78623;BME280;67943;54.412;9.502;2024-03-07T02:44:32;102802.31;;;5.46;76.48
78623;BME280;67943;54.412;9.502;2024-03-07T02:49:34;102798.94;;;5.50;76.14
78623;BME280;67943;54.412;9.502;2024-03-07T02:54:37;102792.75;;;5.46;75.29
78623;BME280;67943;54.412;9.502;2024-03-07T02:59:39;102795.22;;;5.41;75.21
78623;BME280;67943;54.412;9.502;2024-03-07T03:04:40;102796.69;;;5.33;74.71
78623;BME280;67943;54.412;9.502;2024-03-07T03:09:44;102800.53;;;5.18;72.64
78623;BME280;67943;54.412;9.502;2024-03-07T03:14:45;102789.53;;;5.01;72.55
78623;BME280;67943;54.412;9.502;2024-03-07T03:19:47;102797.25;;;4.98;72.55
78623;BME280;67943;54.412;9.502;2024-03-07T03:24:51;102798.03;;;4.95;72.71
78623;BME280;67943;54.412;9.502;2024-03-07T03:29:55;102794.44;;;4.92;72.95
78623;BME280;67943;54.412;9.502;2024-03-07T03:34:57;102800.53;;;4.91;72.69
78623;BME280;67943;54.412;9.502;2024-03-07T03:40:00;102794.25;;;4.86;72.78
78623;BME280;67943;54.412;9.502;2024-03-07T03:45:02;102809.03;;;4.85;72.50
78623;BME280;67943;54.412;9.502;2024-03-07T03:50:07;102801.38;;;4.90;72.17
78623;BME280;67943;54.412;9.502;2024-03-07T03:55:11;102805.31;;;4.79;72.28
78623;BME280;67943;54.412;9.502;2024-03-07T04:00:13;102800.22;;;4.82;71.24
78623;BME280;67943;54.412;9.502;2024-03-07T04:05:16;102813.75;;;4.71;71.39
78623;BME280;67943;54.412;9.502;2024-03-07T04:10:19;102805.88;;;4.70;71.20
78623;BME280;67943;54.412;9.502;2024-03-07T04:15:21;102804.78;;;4.63;71.20
78623;BME280;67943;54.412;9.502;2024-03-07T04:20:27;102810.16;;;4.68;70.70
78623;BME280;67943;54.412;9.502;2024-03-07T04:25:30;102806.34;;;4.58;70.73
78623;BME280;67943;54.412;9.502;2024-03-07T04:30:31;102803.94;;;4.64;70.66
78623;BME280;67943;54.412;9.502;2024-03-07T04:35:33;102804.47;;;4.54;70.70
78623;BME280;67943;54.412;9.502;2024-03-07T04:40:36;102800.81;;;4.49;70.57
78623;BME280;67943;54.412;9.502;2024-03-07T04:45:38;102802.69;;;4.53;70.21
78623;BME280;67943;54.412;9.502;2024-03-07T04:50:39;102806.69;;;4.44;70.19
78623;BME280;67943;54.412;9.502;2024-03-07T04:55:42;102807.56;;;4.44;69.82
78623;BME280;67943;54.412;9.502;2024-03-07T05:00:44;102806.81;;;4.47;69.48
78623;BME280;67943;54.412;9.502;2024-03-07T05:05:45;102802.38;;;4.44;70.07
78623;BME280;67943;54.412;9.502;2024-03-07T05:10:48;102807.03;;;4.53;69.39
78623;BME280;67943;54.412;9.502;2024-03-07T05:15:50;102808.97;;;4.58;68.94
78623;BME280;67943;54.412;9.502;2024-03-07T05:20:52;102803.59;;;4.54;69.38
78623;BME280;67943;54.412;9.502;2024-03-07T05:25:56;102806.84;;;4.48;69.52
78623;BME280;67943;54.412;9.502;2024-03-07T05:30:58;102807.75;;;4.49;69.93
78623;BME280;67943;54.412;9.502;2024-03-07T05:35:59;102814.78;;;4.51;69.62
78623;BME280;67943;54.412;9.502;2024-03-07T05:41:16;102812.19;;;4.51;68.86
78623;BME280;67943;54.412;9.502;2024-03-07T05:46:17;102813.00;;;4.50;69.06
78623;BME280;67943;54.412;9.502;2024-03-07T05:51:19;102816.34;;;4.46;68.88
78623;BME280;67943;54.412;9.502;2024-03-07T05:56:22;102818.72;;;4.40;68.86
78623;BME280;67943;54.412;9.502;2024-03-07T06:01:23;102816.13;;;4.40;69.12
78623;BME280;67943;54.412;9.502;2024-03-07T06:06:28;102816.22;;;4.43;68.76
78623;BME280;67943;54.412;9.502;2024-03-07T06:11:33;102821.09;;;4.34;68.74
78623;BME280;67943;54.412;9.502;2024-03-07T06:16:36;102828.09;;;4.35;68.29
78623;BME280;67943;54.412;9.502;2024-03-07T06:21:39;102824.56;;;4.33;67.22
78623;BME280;67943;54.412;9.502;2024-03-07T06:26:43;102833.22;;;4.32;67.27
78623;BME280;67943;54.412;9.502;2024-03-07T06:31:49;102825.66;;;4.39;67.44
78623;BME280;67943;54.412;9.502;2024-03-07T06:36:51;102833.09;;;4.29;67.61
78623;BME280;67943;54.412;9.502;2024-03-07T06:41:53;102821.03;;;4.31;67.50
78623;BME280;67943;54.412;9.502;2024-03-07T06:46:55;102835.91;;;4.35;67.56
78623;BME280;67943;54.412;9.502;2024-03-07T06:51:58;102837.19;;;4.46;67.41
78623;BME280;67943;54.412;9.502;2024-03-07T06:57:01;102833.03;;;4.51;67.24
78623;BME280;67943;54.412;9.502;2024-03-07T07:02:03;102840.25;;;4.58;66.53
78623;BME280;67943;54.412;9.502;2024-03-07T07:07:05;102841.97;;;4.58;65.90
78623;BME280;67943;54.412;9.502;2024-03-07T07:12:08;102833.25;;;4.57;66.40
78623;BME280;67943;54.412;9.502;2024-03-07T07:17:09;102839.84;;;4.71;65.76
78623;BME280;67943;54.412;9.502;2024-03-07T07:22:14;102835.66;;;4.77;65.76
78623;BME280;67943;54.412;9.502;2024-03-07T07:27:16;102836.84;;;4.85;65.96
78623;BME280;67943;54.412;9.502;2024-03-07T07:32:18;102833.69;;;4.95;65.35
78623;BME280;67943;54.412;9.502;2024-03-07T07:37:20;102830.66;;;5.08;65.36
78623;BME280;67943;54.412;9.502;2024-03-07T07:42:24;102819.88;;;5.24;64.97
78623;BME280;67943;54.412;9.502;2024-03-07T07:47:26;102819.41;;;5.36;64.14
78623;BME280;67943;54.412;9.502;2024-03-07T07:52:28;102814.59;;;5.50;64.58
78623;BME280;67943;54.412;9.502;2024-03-07T07:57:31;102804.50;;;5.60;63.63
78623;BME280;67943;54.412;9.502;2024-03-07T08:02:32;102799.72;;;5.74;62.91
78623;BME280;67943;54.412;9.502;2024-03-07T08:07:34;102793.84;;;5.83;62.29
78623;BME280;67943;54.412;9.502;2024-03-07T08:12:37;102796.78;;;5.92;60.78
78623;BME280;67943;54.412;9.502;2024-03-07T08:17:41;102804.81;;;5.98;59.95
78623;BME280;67943;54.412;9.502;2024-03-07T08:22:44;102800.78;;;6.10;59.63
78623;BME280;67943;54.412;9.502;2024-03-07T08:27:48;102800.22;;;6.21;59.89
78623;BME280;67943;54.412;9.502;2024-03-07T08:32:51;102805.28;;;6.46;59.27
78623;BME280;67943;54.412;9.502;2024-03-07T08:37:55;102797.69;;;6.55;59.44
78623;BME280;67943;54.412;9.502;2024-03-07T08:43:00;102809.56;;;6.75;58.28
78623;BME280;67943;54.412;9.502;2024-03-07T08:48:02;102811.28;;;6.75;58.39
78623;BME280;67943;54.412;9.502;2024-03-07T08:53:04;102801.03;;;6.83;58.41
78623;BME280;67943;54.412;9.502;2024-03-07T08:58:07;102798.41;;;6.83;58.22
78623;BME280;67943;54.412;9.502;2024-03-07T09:03:09;102799.56;;;6.94;57.96
78623;BME280;67943;54.412;9.502;2024-03-07T09:08:11;102803.16;;;6.97;58.02
78623;BME280;67943;54.412;9.502;2024-03-07T09:13:14;102796.25;;;7.01;58.39
78623;BME280;67943;54.412;9.502;2024-03-07T09:18:15;102801.13;;;6.86;58.53
78623;BME280;67943;54.412;9.502;2024-03-07T09:23:17;102797.81;;;6.93;58.81
78623;BME280;67943;54.412;9.502;2024-03-07T09:28:20;102806.00;;;7.06;58.95
78623;BME280;67943;54.412;9.502;2024-03-07T09:33:21;102791.34;;;7.13;58.89
78623;BME280;67943;54.412;9.502;2024-03-07T09:38:23;102791.50;;;7.19;59.25
78623;BME280;67943;54.412;9.502;2024-03-07T09:43:26;102786.53;;;7.31;59.16
78623;BME280;67943;54.412;9.502;2024-03-07T09:48:29;102786.59;;;7.34;59.46
78623;BME280;67943;54.412;9.502;2024-03-07T09:53:31;102785.53;;;7.64;58.88
78623;BME280;67943;54.412;9.502;2024-03-07T09:58:35;102775.66;;;7.52;59.08
78623;BME280;67943;54.412;9.502;2024-03-07T10:03:41;102773.97;;;7.56;60.04
78623;BME280;67943;54.412;9.502;2024-03-07T10:08:45;102772.13;;;7.50;61.65
78623;BME280;67943;54.412;9.502;2024-03-07T10:13:48;102760.81;;;7.53;62.16
78623;BME280;67943;54.412;9.502;2024-03-07T10:18:52;102772.50;;;7.29;63.40
78623;BME280;67943;54.412;9.502;2024-03-07T10:24:04;102775.63;;;7.13;63.95
78623;BME280;67943;54.412;9.502;2024-03-07T10:29:08;102784.53;;;7.20;64.28
78623;BME280;67943;54.412;9.502;2024-03-07T10:34:09;102783.53;;;7.15;64.18
78623;BME280;67943;54.412;9.502;2024-03-07T10:39:12;102794.66;;;7.06;64.29
78623;BME280;67943;54.412;9.502;2024-03-07T10:44:19;102784.97;;;7.03;64.46
78623;BME280;67943;54.412;9.502;2024-03-07T10:49:25;102780.56;;;7.01;65.26
78623;BME280;67943;54.412;9.502;2024-03-07T10:54:34;102787.72;;;7.08;64.75
78623;BME280;67943;54.412;9.502;2024-03-07T10:59:49;102771.09;;;7.06;64.82
78623;BME280;67943;54.412;9.502;2024-03-07T11:04:51;102770.34;;;7.11;64.40
78623;BME280;67943;54.412;9.502;2024-03-07T11:09:53;102778.28;;;7.15;63.54
78623;BME280;67943;54.412;9.502;2024-03-07T11:14:58;102768.63;;;7.12;63.95
78623;BME280;67943;54.412;9.502;2024-03-07T11:20:18;102760.81;;;7.14;64.46
78623;BME280;67943;54.412;9.502;2024-03-07T11:25:20;102759.91;;;7.13;65.16
78623;BME280;67943;54.412;9.502;2024-03-07T11:30:24;102748.72;;;7.19;64.69
78623;BME280;67943;54.412;9.502;2024-03-07T11:35:31;102747.91;;;7.21;64.73
78623;BME280;67943;54.412;9.502;2024-03-07T11:40:44;102749.00;;;7.32;64.33
78623;BME280;67943;54.412;9.502;2024-03-07T11:45:51;102738.53;;;7.32;64.27
78623;BME280;67943;54.412;9.502;2024-03-07T11:50:53;102735.31;;;7.44;64.13
78623;BME280;67943;54.412;9.502;2024-03-07T11:55:55;102723.94;;;7.42;63.53
78623;BME280;67943;54.412;9.502;2024-03-07T12:00:58;102724.09;;;7.50;63.49
78623;BME280;67943;54.412;9.502;2024-03-07T12:05:59;102715.97;;;7.78;62.15
78623;BME280;67943;54.412;9.502;2024-03-07T12:11:01;102716.97;;;7.85;61.63
78623;BME280;67943;54.412;9.502;2024-03-07T12:16:06;102708.25;;;7.86;61.48
78623;BME280;67943;54.412;9.502;2024-03-07T12:21:08;102704.19;;;8.01;61.00
78623;BME280;67943;54.412;9.502;2024-03-07T12:26:10;102707.06;;;8.15;60.94
78623;BME280;67943;54.412;9.502;2024-03-07T12:31:19;102700.28;;;8.26;59.91
78623;BME280;67943;54.412;9.502;2024-03-07T12:36:24;102702.91;;;8.26;59.94
78623;BME280;67943;54.412;9.502;2024-03-07T12:41:34;102697.88;;;8.35;59.95
78623;BME280;67943;54.412;9.502;2024-03-07T12:46:37;102687.63;;;8.49;58.84
78623;BME280;67943;54.412;9.502;2024-03-07T12:51:40;102686.63;;;8.42;59.03
78623;BME280;67943;54.412;9.502;2024-03-07T12:56:43;102685.25;;;8.64;58.73
78623;BME280;67943;54.412;9.502;2024-03-07T13:01:46;102685.66;;;8.89;58.77
78623;BME280;67943;54.412;9.502;2024-03-07T13:06:48;102679.88;;;9.12;57.25
78623;BME280;67943;54.412;9.502;2024-03-07T13:11:49;102673.47;;;8.95;56.63
78623;BME280;67943;54.412;9.502;2024-03-07T13:16:52;102676.56;;;8.70;57.39
78623;BME280;67943;54.412;9.502;2024-03-07T13:21:54;102675.56;;;8.60;58.13
78623;BME280;67943;54.412;9.502;2024-03-07T13:26:55;102672.84;;;8.54;58.50
78623;BME280;67943;54.412;9.502;2024-03-07T13:31:58;102653.28;;;8.35;59.73
78623;BME280;67943;54.412;9.502;2024-03-07T13:37:00;102666.25;;;8.29;60.57
78623;BME280;67943;54.412;9.502;2024-03-07T13:42:01;102657.69;;;8.38;61.02
78623;BME280;67943;54.412;9.502;2024-03-07T13:47:06;102658.09;;;8.62;60.89
78623;BME280;67943;54.412;9.502;2024-03-07T13:52:08;102658.16;;;8.67;60.26
78623;BME280;67943;54.412;9.502;2024-03-07T13:57:26;102644.97;;;8.61;60.35
78623;BME280;67943;54.412;9.502;2024-03-07T14:02:47;102649.16;;;8.51;60.40
78623;BME280;67943;54.412;9.502;2024-03-07T14:08:06;102645.47;;;8.40;61.33
78623;BME280;67943;54.412;9.502;2024-03-07T14:13:26;102637.94;;;8.60;60.88
78623;BME280;67943;54.412;9.502;2024-03-07T14:19:09;102628.34;;;8.62;60.48
78623;BME280;67943;54.412;9.502;2024-03-07T14:24:35;102629.94;;;8.52;60.78
78623;BME280;67943;54.412;9.502;2024-03-07T14:29:44;102613.41;;;8.58;61.05
78623;BME280;67943;54.412;9.502;2024-03-07T14:34:56;102609.09;;;8.61;61.55
78623;BME280;67943;54.412;9.502;2024-03-07T14:40:07;102619.03;;;8.82;60.53
78623;BME280;67943;54.412;9.502;2024-03-07T14:45:12;102611.09;;;8.77;61.11
78623;BME280;67943;54.412;9.502;2024-03-07T14:50:18;102603.47;;;8.96;60.30
78623;BME280;67943;54.412;9.502;2024-03-07T14:55:20;102598.31;;;9.03;59.12
78623;BME280;67943;54.412;9.502;2024-03-07T15:00:22;102587.44;;;8.76;59.96
78623;BME280;67943;54.412;9.502;2024-03-07T15:05:28;102579.72;;;8.87;60.04
78623;BME280;67943;54.412;9.502;2024-03-07T15:10:32;102577.72;;;8.70;60.32
78623;BME280;67943;54.412;9.502;2024-03-07T15:15:35;102569.28;;;8.90;60.44
78623;BME280;67943;54.412;9.502;2024-03-07T15:20:38;102573.19;;;9.22;58.86
78623;BME280;67943;54.412;9.502;2024-03-07T15:25:39;102567.94;;;9.22;58.16
78623;BME280;67943;54.412;9.502;2024-03-07T15:30:41;102573.13;;;9.16;58.73
78623;BME280;67943;54.412;9.502;2024-03-07T15:35:44;102565.63;;;9.50;57.76
78623;BME280;67943;54.412;9.502;2024-03-07T15:40:46;102564.66;;;9.41;57.45
78623;BME280;67943;54.412;9.502;2024-03-07T15:45:49;102556.03;;;9.52;58.41
78623;BME280;67943;54.412;9.502;2024-03-07T15:50:53;102561.91;;;10.19;57.31
78623;BME280;67943;54.412;9.502;2024-03-07T15:55:57;102551.88;;;10.87;54.12
78623;BME280;67943;54.412;9.502;2024-03-07T16:00:59;102538.06;;;11.57;52.24
78623;BME280;67943;54.412;9.502;2024-03-07T16:06:02;102546.94;;;11.83;51.58
78623;BME280;67943;54.412;9.502;2024-03-07T16:11:06;102541.66;;;11.83;50.57
78623;BME280;67943;54.412;9.502;2024-03-07T16:16:09;102538.72;;;10.89;52.08
78623;BME280;67943;54.412;9.502;2024-03-07T16:21:12;102537.03;;;9.83;54.80
78623;BME280;67943;54.412;9.502;2024-03-07T16:26:33;102538.00;;;9.08;57.55
78623;BME280;67943;54.412;9.502;2024-03-07T16:31:34;102525.88;;;8.53;60.04
78623;BME280;67943;54.412;9.502;2024-03-07T16:36:37;102539.28;;;8.17;61.33
78623;BME280;67943;54.412;9.502;2024-03-07T16:41:39;102535.97;;;7.75;62.83
78623;BME280;67943;54.412;9.502;2024-03-07T16:46:40;102531.00;;;7.42;64.30
78623;BME280;67943;54.412;9.502;2024-03-07T16:51:43;102529.69;;;7.19;65.95
78623;BME280;67943;54.412;9.502;2024-03-07T16:56:45;102531.94;;;7.02;67.09
78623;BME280;67943;54.412;9.502;2024-03-07T17:01:46;102535.88;;;6.82;68.12
78623;BME280;67943;54.412;9.502;2024-03-07T17:06:49;102540.72;;;6.65;69.27
78623;BME280;67943;54.412;9.502;2024-03-07T17:11:52;102539.59;;;6.53;69.69
78623;BME280;67943;54.412;9.502;2024-03-07T17:16:53;102547.09;;;6.39;70.39
78623;BME280;67943;54.412;9.502;2024-03-07T17:21:57;102538.97;;;6.27;70.86
78623;BME280;67943;54.412;9.502;2024-03-07T17:26:58;102539.44;;;6.10;71.36
78623;BME280;67943;54.412;9.502;2024-03-07T17:32:00;102529.63;;;6.00;71.67
78623;BME280;67943;54.412;9.502;2024-03-07T17:37:03;102529.34;;;5.90;72.22
78623;BME280;67943;54.412;9.502;2024-03-07T17:42:05;102529.94;;;5.81;72.68
78623;BME280;67943;54.412;9.502;2024-03-07T17:47:11;102533.91;;;5.65;72.95
78623;BME280;67943;54.412;9.502;2024-03-07T17:52:14;102538.00;;;5.56;73.62
78623;BME280;67943;54.412;9.502;2024-03-07T17:57:16;102542.13;;;5.46;73.82
78623;BME280;67943;54.412;9.502;2024-03-07T18:02:18;102542.03;;;5.43;73.97
78623;BME280;67943;54.412;9.502;2024-03-07T18:07:22;102546.19;;;5.36;74.51
78623;BME280;67943;54.412;9.502;2024-03-07T18:12:23;102540.78;;;5.30;74.90
78623;BME280;67943;54.412;9.502;2024-03-07T18:17:26;102539.72;;;5.24;75.06
78623;BME280;67943;54.412;9.502;2024-03-07T18:22:29;102531.78;;;5.19;75.34
78623;BME280;67943;54.412;9.502;2024-03-07T18:27:32;102533.38;;;5.14;75.90
78623;BME280;67943;54.412;9.502;2024-03-07T18:32:35;102534.97;;;5.09;75.90
78623;BME280;67943;54.412;9.502;2024-03-07T18:37:38;102535.69;;;5.03;76.40
78623;BME280;67943;54.412;9.502;2024-03-07T18:42:40;102536.38;;;4.98;76.57
78623;BME280;67943;54.412;9.502;2024-03-07T18:47:43;102527.53;;;4.93;76.66
78623;BME280;67943;54.412;9.502;2024-03-07T18:52:47;102530.91;;;4.89;76.72
78623;BME280;67943;54.412;9.502;2024-03-07T18:57:51;102531.66;;;4.85;77.05
78623;BME280;67943;54.412;9.502;2024-03-07T19:02:54;102521.97;;;4.81;77.04
78623;BME280;67943;54.412;9.502;2024-03-07T19:07:57;102529.94;;;4.85;77.21
78623;BME280;67943;54.412;9.502;2024-03-07T19:12:59;102530.63;;;4.80;77.23
78623;BME280;67943;54.412;9.502;2024-03-07T19:18:01;102527.09;;;4.78;77.75
78623;BME280;67943;54.412;9.502;2024-03-07T19:23:11;102522.75;;;4.78;78.34
78623;BME280;67943;54.412;9.502;2024-03-07T19:28:13;102526.25;;;4.79;78.55
78623;BME280;67943;54.412;9.502;2024-03-07T19:33:15;102529.41;;;4.68;79.10
78623;BME280;67943;54.412;9.502;2024-03-07T19:38:19;102528.59;;;4.69;79.08
78623;BME280;67943;54.412;9.502;2024-03-07T19:43:20;102531.28;;;4.72;79.29
78623;BME280;67943;54.412;9.502;2024-03-07T19:48:23;102522.44;;;4.67;79.65
78623;BME280;67943;54.412;9.502;2024-03-07T19:53:27;102532.13;;;4.71;79.38
78623;BME280;67943;54.412;9.502;2024-03-07T19:58:30;102527.94;;;4.77;79.18
78623;BME280;67943;54.412;9.502;2024-03-07T20:03:33;102535.66;;;4.73;78.64
78623;BME280;67943;54.412;9.502;2024-03-07T20:08:37;102532.03;;;4.68;78.94
78623;BME280;67943;54.412;9.502;2024-03-07T20:13:39;102532.03;;;4.68;79.16
78623;BME280;67943;54.412;9.502;2024-03-07T20:18:41;102530.88;;;4.59;79.16
78623;BME280;67943;54.412;9.502;2024-03-07T20:23:45;102532.03;;;4.68;78.52
78623;BME280;67943;54.412;9.502;2024-03-07T20:28:47;102530.09;;;4.61;78.67
78623;BME280;67943;54.412;9.502;2024-03-07T20:33:48;102528.22;;;4.57;79.16
78623;BME280;67943;54.412;9.502;2024-03-07T20:38:51;102521.50;;;4.65;79.05
78623;BME280;67943;54.412;9.502;2024-03-07T20:43:52;102525.78;;;4.63;78.67
78623;BME280;67943;54.412;9.502;2024-03-07T20:48:54;102514.47;;;4.63;78.73
78623;BME280;67943;54.412;9.502;2024-03-07T20:53:59;102516.25;;;4.64;78.83
78623;BME280;67943;54.412;9.502;2024-03-07T20:59:01;102518.06;;;4.66;78.42
78623;BME280;67943;54.412;9.502;2024-03-07T21:04:03;102523.38;;;4.69;78.67
78623;BME280;67943;54.412;9.502;2024-03-07T21:09:05;102521.69;;;4.71;78.52
78623;BME280;67943;54.412;9.502;2024-03-07T21:14:09;102513.91;;;4.73;78.41
78623;BME280;67943;54.412;9.502;2024-03-07T21:19:12;102519.72;;;4.64;78.63
78623;BME280;67943;54.412;9.502;2024-03-07T21:24:15;102506.03;;;4.71;78.87
78623;BME280;67943;54.412;9.502;2024-03-07T21:29:17;102502.75;;;4.77;78.61
78623;BME280;67943;54.412;9.502;2024-03-07T21:34:18;102506.13;;;4.74;78.43
78623;BME280;67943;54.412;9.502;2024-03-07T21:39:21;102504.19;;;4.67;78.71
78623;BME280;67943;54.412;9.502;2024-03-07T21:44:24;102508.50;;;4.67;78.98
78623;BME280;67943;54.412;9.502;2024-03-07T21:49:26;102500.94;;;4.74;78.08
78623;BME280;67943;54.412;9.502;2024-03-07T21:54:29;102499.16;;;4.73;78.14
78623;BME280;67943;54.412;9.502;2024-03-07T21:59:31;102493.66;;;4.64;77.82
78623;BME280;67943;54.412;9.502;2024-03-07T22:04:34;102506.59;;;4.60;78.41
78623;BME280;67943;54.412;9.502;2024-03-07T22:09:37;102492.72;;;4.61;78.24
78623;BME280;67943;54.412;9.502;2024-03-07T22:14:38;102495.28;;;4.59;77.65
78623;BME280;67943;54.412;9.502;2024-03-07T22:19:40;102486.31;;;4.51;78.08
78623;BME280;67943;54.412;9.502;2024-03-07T22:24:45;102488.69;;;4.44;78.05
78623;BME280;67943;54.412;9.502;2024-03-07T22:29:46;102480.53;;;4.31;78.33
78623;BME280;67943;54.412;9.502;2024-03-07T22:34:48;102488.19;;;4.27;78.59
78623;BME280;67943;54.412;9.502;2024-03-07T22:39:51;102488.03;;;4.22;78.92
78623;BME280;67943;54.412;9.502;2024-03-07T22:44:53;102485.47;;;4.24;78.67
78623;BME280;67943;54.412;9.502;2024-03-07T22:49:55;102482.59;;;4.15;78.91
78623;BME280;67943;54.412;9.502;2024-03-07T22:54:58;102484.97;;;4.08;78.98
78623;BME280;67943;54.412;9.502;2024-03-07T23:00:00;102470.97;;;4.03;78.92
78623;BME280;67943;54.412;9.502;2024-03-07T23:05:01;102465.66;;;4.00;78.52
78623;BME280;67943;54.412;9.502;2024-03-07T23:10:06;102463.47;;;3.87;78.40
78623;BME280;67943;54.412;9.502;2024-03-07T23:15:10;102458.16;;;3.84;78.17
78623;BME280;67943;54.412;9.502;2024-03-07T23:20:12;102460.50;;;3.75;78.60
78623;BME280;67943;54.412;9.502;2024-03-07T23:25:21;102456.06;;;3.72;77.88
78623;BME280;67943;54.412;9.502;2024-03-07T23:30:23;102454.97;;;3.66;77.98
78623;BME280;67943;54.412;9.502;2024-03-07T23:35:26;102454.66;;;3.57;78.24
78623;BME280;67943;54.412;9.502;2024-03-07T23:40:29;102450.06;;;3.50;78.24
78623;BME280;67943;54.412;9.502;2024-03-07T23:45:30;102455.16;;;3.47;78.49
78623;BME280;67943;54.412;9.502;2024-03-07T23:50:32;102445.56;;;3.44;78.10
78623;BME280;67943;54.412;9.502;2024-03-07T23:55:35;102440.22;;;3.39;78.22
